createdAt,value
2023-05-22T00:01:51.897Z,12.63
2023-05-22T00:04:21.481Z,12.56
2023-05-22T00:06:49.317Z,12.52
2023-05-22T00:09:16.195Z,12.44
2023-05-22T00:11:43.029Z,12.38
2023-05-22T00:14:09.800Z,12.41
2023-05-22T00:16:36.600Z,12.34
2023-05-22T00:19:03.931Z,12.41
2023-05-22T00:21:34.756Z,12.41
2023-05-22T00:24:02.240Z,12.52
2023-05-22T00:26:29.051Z,12.64
2023-05-22T00:28:56.008Z,12.69
2023-05-22T00:31:23.766Z,12.71
2023-05-22T00:33:50.593Z,12.73
2023-05-22T00:36:18.802Z,12.78
2023-05-22T00:38:46.384Z,12.77
2023-05-22T00:41:13.579Z,12.76
2023-05-22T00:43:40.470Z,12.76
2023-05-22T00:46:10.128Z,12.74
2023-05-22T00:48:37.016Z,12.69
2023-05-22T00:51:04.177Z,12.63
2023-05-22T00:53:31.659Z,12.67
2023-05-22T00:55:59.807Z,12.65
2023-05-22T00:58:27.474Z,12.68
2023-05-22T01:00:55.609Z,12.63
2023-05-22T01:03:26.875Z,12.51
2023-05-22T01:05:54.933Z,12.43
2023-05-22T01:08:22.098Z,12.46
2023-05-22T01:10:54.721Z,12.44
2023-05-22T01:13:34.305Z,12.45
2023-05-22T01:16:22.248Z,12.53
2023-05-22T01:18:55.730Z,12.53
2023-05-22T01:21:37.119Z,12.45
2023-05-22T01:24:18.999Z,12.30
2023-05-22T01:27:25.973Z,12.25
2023-05-22T01:30:21.125Z,12.23
2023-05-22T01:32:49.570Z,12.18
2023-05-22T01:35:19.024Z,12.11
2023-05-22T01:37:46.659Z,12.03
2023-05-22T01:40:13.857Z,11.91
2023-05-22T01:42:41.369Z,12.01
2023-05-22T01:45:11.958Z,12.08
2023-05-22T01:47:38.790Z,11.96
2023-05-22T01:50:06.794Z,11.92
2023-05-22T01:52:48.383Z,11.92
2023-05-22T01:55:27.610Z,11.88
2023-05-22T01:58:06.067Z,11.83
2023-05-22T02:00:33.720Z,11.80
2023-05-22T02:03:07.717Z,11.83
2023-05-22T02:05:38.982Z,11.88
2023-05-22T02:08:06.863Z,11.79
2023-05-22T02:10:35.269Z,11.77
2023-05-22T02:13:02.427Z,11.77
2023-05-22T02:15:29.715Z,11.78
2023-05-22T02:18:00.306Z,11.87
2023-05-22T02:20:27.273Z,11.88
2023-05-22T02:22:53.992Z,11.87
2023-05-22T02:25:20.947Z,11.84
2023-05-22T02:27:48.068Z,11.82
2023-05-22T02:30:15.110Z,11.68
2023-05-22T02:32:42.679Z,11.69
2023-05-22T02:35:09.846Z,11.70
2023-05-22T02:37:37.153Z,11.67
2023-05-22T02:40:07.838Z,11.68
2023-05-22T02:42:34.836Z,11.70
2023-05-22T02:45:02.464Z,11.73
2023-05-22T02:47:29.752Z,11.78
2023-05-22T02:49:58.004Z,11.90
2023-05-22T02:52:25.211Z,12.20
2023-05-22T02:54:51.975Z,12.58
2023-05-22T02:57:19.271Z,13.02
2023-05-22T02:59:46.129Z,13.55
2023-05-22T03:02:15.021Z,14.24
2023-05-22T03:04:42.099Z,14.70
2023-05-22T03:07:09.039Z,15.08
2023-05-22T03:09:36.241Z,15.30
2023-05-22T03:12:03.538Z,15.68
2023-05-22T03:14:30.721Z,15.95
2023-05-22T03:16:58.967Z,16.09
2023-05-22T03:19:26.725Z,16.35
2023-05-22T03:21:53.776Z,16.78
2023-05-22T03:24:21.797Z,16.86
2023-05-22T03:26:48.648Z,16.84
2023-05-22T03:29:19.827Z,16.94
2023-05-22T03:31:46.637Z,17.18
2023-05-22T03:34:14.560Z,17.43
2023-05-22T03:36:42.542Z,17.64
2023-05-22T03:39:09.223Z,17.80
2023-05-22T03:41:39.526Z,17.97
2023-05-22T03:44:07.422Z,18.15
2023-05-22T03:46:34.256Z,18.26
2023-05-22T03:49:01.056Z,18.44
2023-05-22T03:51:27.818Z,18.81
2023-05-22T03:53:54.583Z,18.95
2023-05-22T03:56:21.403Z,18.96
2023-05-22T03:58:48.779Z,18.98
2023-05-22T04:01:16.929Z,19.11
2023-05-22T04:03:44.003Z,19.46
2023-05-22T04:06:10.961Z,19.93
2023-05-22T04:08:39.453Z,20.24
2023-05-22T04:11:06.359Z,20.27
2023-05-22T04:13:33.276Z,20.20
2023-05-22T04:16:02.026Z,20.17
2023-05-22T04:18:28.943Z,20.21
2023-05-22T04:20:57.536Z,20.36
2023-05-22T04:23:24.320Z,20.62
2023-05-22T04:25:51.597Z,20.90
2023-05-22T04:28:22.463Z,21.04
2023-05-22T04:30:49.454Z,21.20
2023-05-22T04:33:18.234Z,21.52
2023-05-22T04:35:45.062Z,21.65
2023-05-22T04:38:11.858Z,21.69
2023-05-22T04:40:38.972Z,21.72
2023-05-22T04:43:06.256Z,21.71
2023-05-22T04:45:33.116Z,21.69
2023-05-22T04:48:02.861Z,21.76
2023-05-22T04:50:36.041Z,21.88
2023-05-22T04:53:06.000Z,21.78
2023-05-22T04:55:34.165Z,21.73
2023-05-22T04:58:01.547Z,21.84
2023-05-22T05:00:29.243Z,21.88
2023-05-22T05:02:57.608Z,21.85
2023-05-22T05:05:25.042Z,21.98
2023-05-22T05:07:53.361Z,22.15
2023-05-22T05:10:20.296Z,22.02
2023-05-22T05:12:47.242Z,21.82
2023-05-22T05:15:14.127Z,21.61
2023-05-22T05:17:41.203Z,21.53
2023-05-22T05:20:08.553Z,21.61
2023-05-22T05:22:35.944Z,21.75
2023-05-22T05:25:05.467Z,21.86
2023-05-22T05:27:32.577Z,21.83
2023-05-22T05:29:59.700Z,21.75
2023-05-22T05:32:36.882Z,21.79
2023-05-22T05:35:23.584Z,21.98
2023-05-22T05:38:01.725Z,22.10
2023-05-22T05:40:28.987Z,22.32
2023-05-22T05:42:56.337Z,22.32
2023-05-22T05:45:26.259Z,22.14
2023-05-22T05:47:53.247Z,22.05
2023-05-22T05:50:20.351Z,21.90
2023-05-22T05:52:47.799Z,21.89
2023-05-22T05:55:17.060Z,22.05
2023-05-22T05:57:44.052Z,22.22
2023-05-22T06:00:15.997Z,22.15
2023-05-22T06:02:43.719Z,22.03
2023-05-22T06:18:43.153Z,23.17
2023-05-22T06:21:10.030Z,23.71
2023-05-22T06:23:36.734Z,23.47
2023-05-22T06:26:04.567Z,23.45
2023-05-22T06:28:31.957Z,23.48
2023-05-22T06:30:59.120Z,23.58
2023-05-22T06:33:26.507Z,23.76
2023-05-22T06:35:54.772Z,23.80
2023-05-22T06:38:21.446Z,23.70
2023-05-22T06:40:49.092Z,23.63
2023-05-22T06:43:19.346Z,23.56
2023-05-22T06:45:50.747Z,23.59
2023-05-22T06:48:33.195Z,23.38
2023-05-22T06:51:10.910Z,23.17
2023-05-22T06:53:38.244Z,23.05
2023-05-22T06:56:07.129Z,22.94
2023-05-22T06:58:44.310Z,22.82
2023-05-22T07:01:10.961Z,22.75
2023-05-22T07:03:42.472Z,22.61
2023-05-22T07:08:13.672Z,22.67
2023-05-22T07:10:40.722Z,22.98
2023-05-22T07:13:07.718Z,23.32
2023-05-22T07:15:35.057Z,23.56
2023-05-22T07:18:03.235Z,23.67
2023-05-22T07:20:30.164Z,23.65
2023-05-22T07:23:09.060Z,23.57
2023-05-22T07:25:36.364Z,23.50
2023-05-22T07:28:08.876Z,23.36
2023-05-22T07:30:39.729Z,23.15
2023-05-22T07:33:07.342Z,22.92
2023-05-22T07:35:35.078Z,22.77
2023-05-22T07:38:01.965Z,22.51
2023-05-22T07:40:28.999Z,22.10
2023-05-22T07:42:55.845Z,21.83
2023-05-22T07:45:22.759Z,21.75
2023-05-22T07:47:49.895Z,21.60
2023-05-22T07:50:16.857Z,21.61
2023-05-22T07:52:44.944Z,21.73
2023-05-22T07:55:11.961Z,21.76
2023-05-22T07:57:39.509Z,21.75
2023-05-22T08:00:14.626Z,21.83
2023-05-22T08:02:41.736Z,21.81
2023-05-22T08:05:09.769Z,21.65
2023-05-22T08:07:37.170Z,21.75
2023-05-22T08:10:07.889Z,21.76
2023-05-22T08:12:35.038Z,21.80
2023-05-22T08:15:02.056Z,21.84
2023-05-22T08:17:28.936Z,21.74
2023-05-22T08:19:55.942Z,21.73
2023-05-22T08:22:22.832Z,21.71
2023-05-22T08:24:49.592Z,21.77
2023-05-22T08:27:16.579Z,21.86
2023-05-22T08:29:43.531Z,21.89
2023-05-22T08:32:10.300Z,21.91
2023-05-22T08:34:37.087Z,21.94
2023-05-22T08:37:05.352Z,22.00
2023-05-22T08:39:32.446Z,22.10
2023-05-22T08:41:59.419Z,22.13
2023-05-22T08:44:26.434Z,22.10
2023-05-22T08:46:56.585Z,22.09
2023-05-22T08:49:24.491Z,22.08
2023-05-22T08:51:56.403Z,22.08
2023-05-22T08:54:26.439Z,22.16
2023-05-22T08:56:57.294Z,22.21
2023-05-22T08:59:24.935Z,22.22
2023-05-22T09:01:52.917Z,22.19
2023-05-22T09:04:23.874Z,22.16
2023-05-22T09:06:51.906Z,22.11
2023-05-22T09:09:18.775Z,22.03
2023-05-22T09:11:45.967Z,21.94
2023-05-22T09:14:13.091Z,21.85
2023-05-22T09:16:47.528Z,21.83
2023-05-22T09:19:15.282Z,21.89
2023-05-22T09:21:43.326Z,21.99
2023-05-22T09:24:11.197Z,22.07
2023-05-22T09:26:41.454Z,22.12
2023-05-22T09:29:08.656Z,22.17
2023-05-22T09:31:42.221Z,22.28
2023-05-22T09:34:10.732Z,22.34
2023-05-22T09:36:37.533Z,22.34
2023-05-22T09:39:06.078Z,22.41
2023-05-22T09:41:38.948Z,22.49
2023-05-22T09:44:16.070Z,22.53
2023-05-22T09:46:46.147Z,22.59
2023-05-22T09:49:16.062Z,22.65
2023-05-22T09:51:47.773Z,22.60
2023-05-22T09:54:16.138Z,22.51
2023-05-22T09:56:44.791Z,22.43
2023-05-22T09:59:13.929Z,22.36
2023-05-22T10:01:42.791Z,22.27
2023-05-22T10:04:14.444Z,22.19
2023-05-22T10:06:46.234Z,22.15
2023-05-22T10:09:19.304Z,22.20
2023-05-22T10:11:57.066Z,22.33
2023-05-22T10:14:24.542Z,22.48
2023-05-22T10:16:51.593Z,22.56
2023-05-22T10:19:18.790Z,22.57
2023-05-22T10:21:47.441Z,22.56
2023-05-22T10:24:14.845Z,22.69
2023-05-22T10:26:43.013Z,22.75
2023-05-22T10:29:15.337Z,22.77
2023-05-22T10:32:01.745Z,22.75
2023-05-22T10:34:58.577Z,22.82
2023-05-22T10:37:41.188Z,22.77
2023-05-22T10:40:10.658Z,22.69
2023-05-22T10:42:38.689Z,22.64
2023-05-22T10:45:09.135Z,22.58
2023-05-22T10:47:36.235Z,22.51
2023-05-22T10:50:12.361Z,22.43
2023-05-22T10:52:40.239Z,22.31
2023-05-22T10:55:09.223Z,22.19
2023-05-22T10:57:40.178Z,22.06
2023-05-22T11:00:13.269Z,22.10
2023-05-22T11:02:45.323Z,22.13
2023-05-22T11:05:20.992Z,22.18
2023-05-22T11:07:48.455Z,22.24
2023-05-22T11:10:26.208Z,22.28
2023-05-22T11:13:12.409Z,22.29
2023-05-22T11:15:45.095Z,22.26
2023-05-22T11:18:12.064Z,22.21
2023-05-22T11:20:40.188Z,22.23
2023-05-22T11:23:08.235Z,22.31
2023-05-22T11:25:36.670Z,22.45
2023-05-22T11:28:05.814Z,22.57
2023-05-22T11:30:34.257Z,22.67
2023-05-22T11:33:02.157Z,22.72
2023-05-22T11:35:29.531Z,22.71
2023-05-22T11:37:58.929Z,22.69
2023-05-22T11:40:29.525Z,22.74
2023-05-22T11:42:56.987Z,22.79
2023-05-22T11:45:24.144Z,22.84
2023-05-22T11:47:51.507Z,22.92
2023-05-22T11:50:29.268Z,22.95
2023-05-22T11:53:02.915Z,22.95
2023-05-22T11:55:30.352Z,22.93
2023-05-22T11:57:58.360Z,22.87
2023-05-22T12:00:26.267Z,22.79
2023-05-22T12:02:55.080Z,22.70
2023-05-22T12:05:22.468Z,22.66
2023-05-22T12:07:49.931Z,22.67
2023-05-22T12:10:17.296Z,22.68
2023-05-22T12:12:45.011Z,22.68
2023-05-22T12:15:12.674Z,22.68
2023-05-22T12:17:40.263Z,22.69
2023-05-22T12:20:07.963Z,22.74
2023-05-22T12:22:42.301Z,22.81
2023-05-22T12:25:14.272Z,22.83
2023-05-22T12:27:44.351Z,22.83
2023-05-22T12:30:15.453Z,22.88
2023-05-22T12:32:50.808Z,22.88
2023-05-22T12:35:19.493Z,22.89
2023-05-22T12:37:51.503Z,22.88
2023-05-22T12:40:19.280Z,22.87
2023-05-22T12:42:47.954Z,22.83
2023-05-22T12:45:15.482Z,22.81
2023-05-22T12:47:42.960Z,22.81
2023-05-22T12:50:10.559Z,22.83
2023-05-22T12:52:37.870Z,22.83
2023-05-22T12:55:05.599Z,22.81
2023-05-22T12:57:32.834Z,22.81
2023-05-22T13:00:00.279Z,22.81
2023-05-22T13:02:31.136Z,22.82
2023-05-22T13:05:02.271Z,22.69
2023-05-22T13:07:29.677Z,22.79
2023-05-22T13:09:56.981Z,22.78
2023-05-22T13:12:24.486Z,22.79
2023-05-22T13:14:51.895Z,22.83
2023-05-22T13:17:19.135Z,22.88
2023-05-22T13:19:46.548Z,22.89
2023-05-22T13:22:14.853Z,22.88
2023-05-22T13:24:42.142Z,22.88
2023-05-22T13:27:09.498Z,22.88
2023-05-22T13:29:36.773Z,22.87
2023-05-22T13:32:04.741Z,22.89
2023-05-22T13:34:32.085Z,22.90
2023-05-22T13:36:59.547Z,22.90
2023-05-22T13:39:26.851Z,22.88
2023-05-22T13:41:54.319Z,22.87
2023-05-22T13:44:21.989Z,22.86
2023-05-22T13:46:49.466Z,22.85
2023-05-22T13:49:17.216Z,22.78
2023-05-22T13:51:44.520Z,22.82
2023-05-22T13:54:11.844Z,22.81
2023-05-22T13:56:39.080Z,22.78
2023-05-22T13:59:09.161Z,22.78
2023-05-22T14:01:36.837Z,22.79
2023-05-22T14:04:04.696Z,22.79
2023-05-22T14:06:31.985Z,22.78
2023-05-22T14:08:59.897Z,22.73
2023-05-22T14:11:27.876Z,22.68
2023-05-22T14:13:55.175Z,22.65
2023-05-22T14:16:22.833Z,22.66
2023-05-22T14:18:50.461Z,22.69
2023-05-22T14:21:18.931Z,22.70
2023-05-22T14:23:46.373Z,22.69
2023-05-22T14:26:14.450Z,22.71
2023-05-22T14:28:42.367Z,22.74
2023-05-22T14:31:09.752Z,22.75
2023-05-22T14:33:37.497Z,22.73
2023-05-22T14:36:05.483Z,22.76
2023-05-22T14:38:33.796Z,22.80
2023-05-22T14:41:01.688Z,22.83
2023-05-22T14:43:29.130Z,22.84
2023-05-22T14:45:58.095Z,22.84
2023-05-22T14:48:26.565Z,22.79
2023-05-22T14:50:54.121Z,22.86
2023-05-22T14:53:21.757Z,22.88
2023-05-22T14:55:49.304Z,22.91
2023-05-22T14:58:16.604Z,22.94
2023-05-22T15:00:45.154Z,22.98
2023-05-22T15:03:13.545Z,22.99
2023-05-22T15:05:40.986Z,22.98
2023-05-22T15:08:08.414Z,22.96
2023-05-22T15:10:36.490Z,22.94
2023-05-22T15:13:03.990Z,22.92
2023-05-22T15:15:31.387Z,22.90
2023-05-22T15:18:02.618Z,22.89
2023-05-22T15:20:31.102Z,22.87
2023-05-22T15:23:00.008Z,22.85
2023-05-22T15:25:27.774Z,22.84
2023-05-22T15:27:55.051Z,22.83
2023-05-22T15:30:23.500Z,22.81
2023-05-22T15:32:50.933Z,22.78
2023-05-22T15:35:18.196Z,22.75
2023-05-22T15:37:45.733Z,22.72
2023-05-22T15:40:16.384Z,22.70
2023-05-22T15:42:43.769Z,22.66
2023-05-22T15:45:11.201Z,22.64
2023-05-22T15:47:38.509Z,22.62
2023-05-22T15:50:06.122Z,22.58
2023-05-22T15:52:33.374Z,22.56
2023-05-22T15:55:00.768Z,22.57
2023-05-22T15:57:30.989Z,22.59
2023-05-22T15:59:58.241Z,22.60
2023-05-22T16:02:25.637Z,22.60
2023-05-22T16:04:52.967Z,22.59
2023-05-22T16:07:20.710Z,22.55
2023-05-22T16:09:50.219Z,22.51
2023-05-22T16:12:18.387Z,22.46
2023-05-22T16:14:45.794Z,22.41
2023-05-22T16:17:13.686Z,22.33
2023-05-22T16:19:41.062Z,22.30
2023-05-22T16:22:08.536Z,22.26
2023-05-22T16:24:35.966Z,22.22
2023-05-22T16:27:03.549Z,22.18
2023-05-22T16:29:32.572Z,22.16
2023-05-22T16:32:00.107Z,22.12
2023-05-22T16:34:27.455Z,22.06
2023-05-22T16:36:54.720Z,22.00
2023-05-22T16:39:22.054Z,21.95
2023-05-22T16:41:51.507Z,21.91
2023-05-22T16:44:20.295Z,21.88
2023-05-22T16:46:49.582Z,21.85
2023-05-22T16:49:17.142Z,21.80
2023-05-22T16:51:44.656Z,21.75
2023-05-22T16:54:11.938Z,21.70
2023-05-22T16:56:39.257Z,21.65
2023-05-22T16:59:06.716Z,21.59
2023-05-22T17:01:34.235Z,21.55
2023-05-22T17:04:01.559Z,21.51
2023-05-22T17:06:30.068Z,21.46
2023-05-22T17:08:57.824Z,21.41
2023-05-22T17:11:26.132Z,21.37
2023-05-22T17:13:53.525Z,21.32
2023-05-22T17:16:21.192Z,21.25
2023-05-22T17:18:48.580Z,21.19
2023-05-22T17:21:17.552Z,21.13
2023-05-22T17:23:44.918Z,21.08
2023-05-22T17:26:14.266Z,21.03
2023-05-22T17:28:41.556Z,20.96
2023-05-22T17:31:09.024Z,20.89
2023-05-22T17:33:36.340Z,20.84
2023-05-22T17:36:04.020Z,20.78
2023-05-22T17:38:31.388Z,20.71
2023-05-22T17:41:00.852Z,20.66
2023-05-22T17:43:28.249Z,20.60
2023-05-22T17:45:55.618Z,20.54
2023-05-22T17:48:27.303Z,20.49
2023-05-22T17:50:54.893Z,20.43
2023-05-22T17:53:22.421Z,20.36
2023-05-22T17:55:52.304Z,20.29
2023-05-22T17:58:20.618Z,20.23
2023-05-22T18:00:48.798Z,20.18
2023-05-22T18:03:20.368Z,20.12
2023-05-22T18:05:51.321Z,20.05
2023-05-22T18:08:19.142Z,19.98
2023-05-22T18:10:46.449Z,19.95
2023-05-22T18:13:13.755Z,19.92
2023-05-22T18:15:41.296Z,19.89
2023-05-22T18:18:10.612Z,19.88
2023-05-22T18:20:38.900Z,19.80
2023-05-22T18:23:06.639Z,19.76
2023-05-22T18:25:34.267Z,19.79
2023-05-22T18:28:01.604Z,19.74
2023-05-22T18:30:29.124Z,19.68
2023-05-22T18:32:56.574Z,19.62
2023-05-22T18:35:23.941Z,19.55
2023-05-22T18:37:51.464Z,19.49
2023-05-22T18:40:18.813Z,19.43
2023-05-22T18:42:46.132Z,19.37
2023-05-22T18:45:13.581Z,19.32
2023-05-22T18:47:41.575Z,19.30
2023-05-22T18:50:09.786Z,19.26
2023-05-22T18:52:38.005Z,19.22
2023-05-22T18:55:07.397Z,19.17
2023-05-22T18:57:34.718Z,19.16
2023-05-22T19:00:02.068Z,19.13
2023-05-22T19:14:40.212Z,19.73
2023-05-22T19:35:54.815Z,19.62
2023-05-22T19:38:22.701Z,19.60
2023-05-22T19:40:49.976Z,19.27
2023-05-22T19:43:16.780Z,19.01
2023-05-22T19:45:44.635Z,18.81
2023-05-22T19:48:11.365Z,18.64
2023-05-22T19:50:38.709Z,18.49
2023-05-22T19:53:05.423Z,18.39
2023-05-22T19:55:32.152Z,18.48
2023-05-22T19:57:58.726Z,18.42
2023-05-22T20:00:30.662Z,18.37
2023-05-22T20:02:59.260Z,18.35
2023-05-22T20:05:26.026Z,18.30
2023-05-22T20:07:53.655Z,18.25
2023-05-22T20:10:20.330Z,18.23
2023-05-22T20:12:47.028Z,18.20
2023-05-22T20:15:14.981Z,18.13
2023-05-22T20:17:46.701Z,18.20
2023-05-22T20:20:13.487Z,18.23
2023-05-22T20:22:39.955Z,18.23
2023-05-22T20:25:08.155Z,18.23
2023-05-22T20:27:35.063Z,18.22
2023-05-22T20:30:02.065Z,18.21
2023-05-22T20:32:29.425Z,18.13
2023-05-22T20:34:56.241Z,18.14
2023-05-22T20:37:23.237Z,18.13
2023-05-22T20:39:51.226Z,18.06
2023-05-22T20:42:19.798Z,18.02
2023-05-22T20:44:46.849Z,17.96
2023-05-22T20:47:13.657Z,17.94
2023-05-22T20:49:41.968Z,17.95
2023-05-22T20:52:09.451Z,17.94
2023-05-22T20:54:36.184Z,17.92
2023-05-22T20:57:03.176Z,17.88
2023-05-22T20:59:30.386Z,17.86
2023-05-22T21:01:57.286Z,17.84
2023-05-22T21:04:25.427Z,17.79
2023-05-22T21:06:52.164Z,17.78
2023-05-22T21:09:19.072Z,17.68
2023-05-22T21:11:46.299Z,17.72
2023-05-22T21:14:13.641Z,17.69
2023-05-22T21:16:40.441Z,17.65
2023-05-22T21:19:07.037Z,17.62
2023-05-22T21:21:35.647Z,17.60
2023-05-22T21:24:03.337Z,17.55
2023-05-22T21:26:30.618Z,17.53
2023-05-22T21:28:57.409Z,17.50
2023-05-22T21:31:24.026Z,17.42
2023-05-22T21:33:50.777Z,17.37
2023-05-22T21:36:17.411Z,17.41
2023-05-22T21:38:44.373Z,17.39
2023-05-22T21:41:11.933Z,17.37
2023-05-22T21:43:38.767Z,17.35
2023-05-22T21:46:05.245Z,17.29
2023-05-22T21:48:33.121Z,17.23
2023-05-22T21:50:59.886Z,17.14
2023-05-22T21:53:26.563Z,17.09
2023-05-22T21:55:52.955Z,17.06
2023-05-22T21:58:19.347Z,17.03
2023-05-22T22:00:46.036Z,17.00
2023-05-22T22:03:12.687Z,16.93
2023-05-22T22:05:39.556Z,16.81
2023-05-22T22:08:06.030Z,16.70
2023-05-22T22:10:32.801Z,16.61
2023-05-22T22:13:01.104Z,16.53
2023-05-22T22:15:27.846Z,16.45
2023-05-22T22:17:59.381Z,16.39
2023-05-22T22:20:42.589Z,16.35
2023-05-22T22:23:11.316Z,16.29
2023-05-22T22:25:38.335Z,16.22
2023-05-22T22:28:05.336Z,16.19
2023-05-22T22:30:32.000Z,16.16
2023-05-22T22:32:59.267Z,16.09
2023-05-22T22:35:26.034Z,15.99
2023-05-22T22:37:52.585Z,15.92
2023-05-22T22:40:19.202Z,15.85
2023-05-22T22:42:45.908Z,15.76
2023-05-22T22:45:13.931Z,15.68
2023-05-22T22:47:40.900Z,15.60
2023-05-22T22:50:09.415Z,15.53
2023-05-22T22:52:37.179Z,15.44
2023-05-22T22:55:05.526Z,15.32
2023-05-22T22:57:32.622Z,15.32
2023-05-22T22:59:59.215Z,15.25
2023-05-22T23:02:25.772Z,15.20
2023-05-22T23:04:52.277Z,15.11
2023-05-22T23:07:19.220Z,15.04
2023-05-22T23:09:46.350Z,15.01
2023-05-22T23:12:12.827Z,14.90
2023-05-22T23:14:39.337Z,14.94
2023-05-22T23:17:11.896Z,14.86
2023-05-22T23:19:38.460Z,14.74
2023-05-22T23:22:05.301Z,14.70
2023-05-22T23:24:31.854Z,14.64
2023-05-22T23:26:58.506Z,14.59
2023-05-22T23:29:25.611Z,14.62
2023-05-22T23:31:52.603Z,14.58
2023-05-22T23:34:19.813Z,14.54
2023-05-22T23:36:46.531Z,14.51
2023-05-22T23:39:13.186Z,14.52
2023-05-22T23:41:39.852Z,14.49
2023-05-22T23:44:07.653Z,14.40
2023-05-22T23:46:36.646Z,14.53
2023-05-22T23:49:03.177Z,14.59
2023-05-22T23:51:30.589Z,14.62
2023-05-22T23:53:57.158Z,14.61
2023-05-22T23:56:23.776Z,14.58
2023-05-22T23:58:50.221Z,14.56
